sensor_id;sensor_type;location;lat;lon;timestamp;pressure;altitude;pressure_sealevel;temperature;humidity
79077;BME280;68477;42.698;23.342;2023-05-14T00:02:19;95836.00;;;13.52;53.14
79077;BME280;68477;42.698;23.342;2023-05-14T00:04:44;95830.00;;;13.58;53.32
79077;BME280;68477;42.698;23.342;2023-05-14T00:07:10;95827.91;;;13.54;52.63
79077;BME280;68477;42.698;23.342;2023-05-14T00:09:36;95828.44;;;13.49;52.46
79077;BME280;68477;42.698;23.342;2023-05-14T00:12:01;95830.59;;;13.46;52.98
79077;BME280;68477;42.698;23.342;2023-05-14T00:14:27;95826.38;;;13.59;52.63
79077;BME280;68477;42.698;23.342;2023-05-14T00:16:52;95816.63;;;13.60;52.52
79077;BME280;68477;42.698;23.342;2023-05-14T00:19:18;95815.91;;;13.66;52.16
79077;BME280;68477;42.698;23.342;2023-05-14T00:21:43;95816.63;;;13.60;52.83
79077;BME280;68477;42.698;23.342;2023-05-14T00:24:09;95820.34;;;13.51;52.07
79077;BME280;68477;42.698;23.342;2023-05-14T00:26:34;95806.75;;;13.54;51.79
79077;BME280;68477;42.698;23.342;2023-05-14T00:29:00;95802.28;;;13.54;52.00
79077;BME280;68477;42.698;23.342;2023-05-14T00:31:25;95808.75;;;13.75;50.88
79077;BME280;68477;42.698;23.342;2023-05-14T00:33:51;95799.09;;;13.59;51.99
79077;BME280;68477;42.698;23.342;2023-05-14T00:36:16;95802.06;;;13.64;51.75
79077;BME280;68477;42.698;23.342;2023-05-14T00:38:41;95800.41;;;13.63;51.83
79077;BME280;68477;42.698;23.342;2023-05-14T00:41:07;95799.69;;;13.69;51.59
79077;BME280;68477;42.698;23.342;2023-05-14T00:43:32;95798.59;;;13.63;51.65
79077;BME280;68477;42.698;23.342;2023-05-14T00:45:58;95789.03;;;13.62;52.48
79077;BME280;68477;42.698;23.342;2023-05-14T00:48:24;95794.41;;;13.69;51.51
79077;BME280;68477;42.698;23.342;2023-05-14T00:50:50;95792.84;;;13.60;51.51
79077;BME280;68477;42.698;23.342;2023-05-14T00:53:18;95792.91;;;13.52;51.65
79077;BME280;68477;42.698;23.342;2023-05-14T00:55:44;95786.69;;;13.45;52.10
79077;BME280;68477;42.698;23.342;2023-05-14T00:58:12;95788.13;;;13.47;52.28
79077;BME280;68477;42.698;23.342;2023-05-14T01:00:39;95785.44;;;13.32;52.56
79077;BME280;68477;42.698;23.342;2023-05-14T01:03:05;95781.03;;;13.25;52.01
79077;BME280;68477;42.698;23.342;2023-05-14T01:11:24;95791.09;;;13.29;52.28
79077;BME280;68477;42.698;23.342;2023-05-14T01:16:30;95781.56;;;13.20;51.97
79077;BME280;68477;42.698;23.342;2023-05-14T01:18:58;95773.81;;;13.19;51.34
79077;BME280;68477;42.698;23.342;2023-05-14T01:21:38;95780.56;;;13.21;51.39
79077;BME280;68477;42.698;23.342;2023-05-14T01:24:06;95793.47;;;13.16;51.91
79077;BME280;68477;42.698;23.342;2023-05-14T01:26:32;95808.16;;;13.10;50.76
79077;BME280;68477;42.698;23.342;2023-05-14T01:29:18;95807.47;;;13.17;51.69
79077;BME280;68477;42.698;23.342;2023-05-14T01:31:46;95810.94;;;13.17;50.90
79077;BME280;68477;42.698;23.342;2023-05-14T01:34:13;95811.97;;;13.08;51.97
79077;BME280;68477;42.698;23.342;2023-05-14T01:36:40;95812.81;;;13.08;51.09
79077;BME280;68477;42.698;23.342;2023-05-14T01:39:07;95808.97;;;13.11;52.02
79077;BME280;68477;42.698;23.342;2023-05-14T01:41:35;95809.81;;;13.11;52.23
79077;BME280;68477;42.698;23.342;2023-05-14T01:44:02;95810.88;;;13.02;51.21
79077;BME280;68477;42.698;23.342;2023-05-14T01:46:31;95806.44;;;12.95;52.40
79077;BME280;68477;42.698;23.342;2023-05-14T01:48:57;95806.28;;;12.96;51.39
79077;BME280;68477;42.698;23.342;2023-05-14T01:51:23;95798.16;;;12.98;51.07
79077;BME280;68477;42.698;23.342;2023-05-14T01:53:48;95794.41;;;12.92;51.65
79077;BME280;68477;42.698;23.342;2023-05-14T01:56:13;95801.38;;;12.85;52.47
79077;BME280;68477;42.698;23.342;2023-05-14T01:58:39;95813.75;;;12.85;52.01
79077;BME280;68477;42.698;23.342;2023-05-14T02:01:04;95807.47;;;12.86;51.84
79077;BME280;68477;42.698;23.342;2023-05-14T02:03:30;95813.59;;;12.78;51.97
79077;BME280;68477;42.698;23.342;2023-05-14T02:05:55;95803.88;;;12.78;52.78
79077;BME280;68477;42.698;23.342;2023-05-14T02:08:21;95806.03;;;12.75;52.94
79077;BME280;68477;42.698;23.342;2023-05-14T02:10:46;95809.22;;;12.70;52.68
79077;BME280;68477;42.698;23.342;2023-05-14T02:13:12;95806.25;;;12.65;54.85
79077;BME280;68477;42.698;23.342;2023-05-14T02:15:37;95806.06;;;12.67;52.89
79077;BME280;68477;42.698;23.342;2023-05-14T02:18:02;95800.66;;;12.60;52.86
79077;BME280;68477;42.698;23.342;2023-05-14T02:20:28;95809.53;;;12.67;52.38
79077;BME280;68477;42.698;23.342;2023-05-14T02:22:54;95813.03;;;12.60;52.88
79077;BME280;68477;42.698;23.342;2023-05-14T02:25:19;95816.59;;;12.75;53.30
79077;BME280;68477;42.698;23.342;2023-05-14T02:27:45;95833.81;;;12.54;53.64
79077;BME280;68477;42.698;23.342;2023-05-14T02:30:10;95825.91;;;12.54;54.10
79077;BME280;68477;42.698;23.342;2023-05-14T02:32:36;95827.91;;;12.52;55.45
79077;BME280;68477;42.698;23.342;2023-05-14T02:35:01;95832.06;;;12.39;54.84
79077;BME280;68477;42.698;23.342;2023-05-14T02:37:27;95828.41;;;12.48;55.54
79077;BME280;68477;42.698;23.342;2023-05-14T02:39:52;95828.91;;;12.43;55.57
79077;BME280;68477;42.698;23.342;2023-05-14T02:42:18;95841.78;;;12.38;56.96
79077;BME280;68477;42.698;23.342;2023-05-14T02:44:43;95846.41;;;12.36;55.57
79077;BME280;68477;42.698;23.342;2023-05-14T02:47:08;95842.81;;;12.29;55.77
79077;BME280;68477;42.698;23.342;2023-05-14T02:49:34;95843.09;;;12.34;56.33
79077;BME280;68477;42.698;23.342;2023-05-14T02:51:59;95838.00;;;12.33;55.28
79077;BME280;68477;42.698;23.342;2023-05-14T02:54:25;95834.41;;;12.26;55.04
79077;BME280;68477;42.698;23.342;2023-05-14T02:56:51;95845.44;;;12.37;55.63
79077;BME280;68477;42.698;23.342;2023-05-14T02:59:16;95839.16;;;12.30;54.93
79077;BME280;68477;42.698;23.342;2023-05-14T03:01:42;95844.44;;;12.22;56.54
79077;BME280;68477;42.698;23.342;2023-05-14T03:04:08;95843.28;;;12.33;56.16
79077;BME280;68477;42.698;23.342;2023-05-14T03:06:34;95846.41;;;12.36;55.58
79077;BME280;68477;42.698;23.342;2023-05-14T03:08:59;95844.25;;;12.40;56.66
79077;BME280;68477;42.698;23.342;2023-05-14T03:11:25;95840.16;;;12.21;57.05
79077;BME280;68477;42.698;23.342;2023-05-14T03:13:50;95834.25;;;12.19;56.58
79077;BME280;68477;42.698;23.342;2023-05-14T03:16:16;95818.91;;;12.22;56.22
79077;BME280;68477;42.698;23.342;2023-05-14T03:18:41;95812.66;;;12.23;55.64
79077;BME280;68477;42.698;23.342;2023-05-14T03:21:06;95814.13;;;12.26;56.13
79077;BME280;68477;42.698;23.342;2023-05-14T03:23:33;95822.84;;;12.35;56.30
79077;BME280;68477;42.698;23.342;2023-05-14T03:25:59;95826.97;;;12.37;55.35
79077;BME280;68477;42.698;23.342;2023-05-14T03:28:26;95831.91;;;12.32;57.43
79077;BME280;68477;42.698;23.342;2023-05-14T03:30:51;95834.06;;;12.37;56.80
79077;BME280;68477;42.698;23.342;2023-05-14T03:33:17;95826.78;;;12.39;56.11
79077;BME280;68477;42.698;23.342;2023-05-14T03:35:42;95841.28;;;12.43;57.49
79077;BME280;68477;42.698;23.342;2023-05-14T03:38:08;95842.63;;;12.31;58.82
79077;BME280;68477;42.698;23.342;2023-05-14T03:40:33;95843.75;;;12.44;60.09
79077;BME280;68477;42.698;23.342;2023-05-14T03:42:59;95844.09;;;12.33;58.83
79077;BME280;68477;42.698;23.342;2023-05-14T03:45:24;95839.22;;;12.14;60.04
79077;BME280;68477;42.698;23.342;2023-05-14T03:47:51;95835.41;;;12.16;59.42
79077;BME280;68477;42.698;23.342;2023-05-14T03:50:16;95845.47;;;12.05;60.75
79077;BME280;68477;42.698;23.342;2023-05-14T03:52:42;95845.81;;;12.02;61.45
79077;BME280;68477;42.698;23.342;2023-05-14T03:55:08;95845.34;;;11.90;60.46
79077;BME280;68477;42.698;23.342;2023-05-14T03:57:34;95848.78;;;11.82;60.52
79077;BME280;68477;42.698;23.342;2023-05-14T04:00:00;95845.00;;;11.93;60.80
79077;BME280;68477;42.698;23.342;2023-05-14T04:02:26;95842.53;;;11.91;61.61
79077;BME280;68477;42.698;23.342;2023-05-14T04:04:51;95839.06;;;11.91;60.56
79077;BME280;68477;42.698;23.342;2023-05-14T04:07:17;95841.88;;;11.89;60.28
79077;BME280;68477;42.698;23.342;2023-05-14T04:09:42;95845.63;;;11.79;60.29
79077;BME280;68477;42.698;23.342;2023-05-14T04:12:08;95845.63;;;11.79;60.96
79077;BME280;68477;42.698;23.342;2023-05-14T04:14:33;95845.97;;;12.00;61.36
79077;BME280;68477;42.698;23.342;2023-05-14T04:16:59;95849.44;;;11.84;60.75
79077;BME280;68477;42.698;23.342;2023-05-14T04:19:25;95854.38;;;11.95;60.88
79077;BME280;68477;42.698;23.342;2023-05-14T04:21:52;95850.75;;;11.88;60.86
79077;BME280;68477;42.698;23.342;2023-05-14T04:24:17;95857.53;;;11.91;62.10
79077;BME280;68477;42.698;23.342;2023-05-14T04:26:43;95859.16;;;11.84;62.75
79077;BME280;68477;42.698;23.342;2023-05-14T04:29:08;95855.06;;;11.81;61.06
79077;BME280;68477;42.698;23.342;2023-05-14T04:31:33;95863.28;;;11.86;61.12
79077;BME280;68477;42.698;23.342;2023-05-14T04:33:59;95872.50;;;11.99;60.68
79077;BME280;68477;42.698;23.342;2023-05-14T04:36:24;95872.66;;;11.97;61.30
79077;BME280;68477;42.698;23.342;2023-05-14T04:38:50;95872.84;;;12.04;60.18
79077;BME280;68477;42.698;23.342;2023-05-14T04:41:16;95882.56;;;11.95;59.45
79077;BME280;68477;42.698;23.342;2023-05-14T04:43:41;95877.75;;;11.99;59.78
79077;BME280;68477;42.698;23.342;2023-05-14T04:46:06;95879.25;;;11.85;59.56
79077;BME280;68477;42.698;23.342;2023-05-14T04:48:33;95883.72;;;11.92;59.45
79077;BME280;68477;42.698;23.342;2023-05-14T04:50:59;95888.34;;;11.90;60.42
79077;BME280;68477;42.698;23.342;2023-05-14T04:53:25;95898.34;;;11.87;61.16
79077;BME280;68477;42.698;23.342;2023-05-14T04:55:50;95902.00;;;11.86;61.41
79077;BME280;68477;42.698;23.342;2023-05-14T04:58:16;95902.09;;;11.76;60.80
79077;BME280;68477;42.698;23.342;2023-05-14T05:00:41;95914.16;;;11.79;62.23
79077;BME280;68477;42.698;23.342;2023-05-14T05:03:07;95911.66;;;11.61;62.79
79077;BME280;68477;42.698;23.342;2023-05-14T05:05:33;95917.22;;;11.50;63.39
79077;BME280;68477;42.698;23.342;2023-05-14T05:08:00;95927.72;;;11.33;64.12
79077;BME280;68477;42.698;23.342;2023-05-14T05:10:26;95929.06;;;11.37;64.21
79077;BME280;68477;42.698;23.342;2023-05-14T05:12:52;95936.50;;;11.50;66.31
79077;BME280;68477;42.698;23.342;2023-05-14T05:15:17;95945.69;;;11.38;67.23
79077;BME280;68477;42.698;23.342;2023-05-14T05:17:43;95949.81;;;11.49;68.00
79077;BME280;68477;42.698;23.342;2023-05-14T05:20:08;95941.97;;;11.15;66.42
79077;BME280;68477;42.698;23.342;2023-05-14T05:22:34;95958.09;;;11.20;68.71
79077;BME280;68477;42.698;23.342;2023-05-14T05:25:01;95957.94;;;11.13;68.92
79077;BME280;68477;42.698;23.342;2023-05-14T05:27:30;95960.63;;;10.95;68.86
79077;BME280;68477;42.698;23.342;2023-05-14T05:29:56;95957.59;;;10.82;71.89
79077;BME280;68477;42.698;23.342;2023-05-14T05:32:21;95962.38;;;10.78;71.78
79077;BME280;68477;42.698;23.342;2023-05-14T05:34:47;95963.06;;;10.63;74.58
79077;BME280;68477;42.698;23.342;2023-05-14T05:37:12;95969.41;;;10.52;74.56
79077;BME280;68477;42.698;23.342;2023-05-14T05:39:39;95963.25;;;10.61;74.55
79077;BME280;68477;42.698;23.342;2023-05-14T05:42:05;95963.50;;;10.50;75.30
79077;BME280;68477;42.698;23.342;2023-05-14T05:44:30;95967.94;;;10.49;76.53
79077;BME280;68477;42.698;23.342;2023-05-14T05:46:56;95967.94;;;10.49;77.99
79077;BME280;68477;42.698;23.342;2023-05-14T05:49:22;95968.84;;;10.40;77.11
79077;BME280;68477;42.698;23.342;2023-05-14T05:51:49;95967.03;;;10.41;78.46
79077;BME280;68477;42.698;23.342;2023-05-14T05:54:14;95978.34;;;10.33;78.58
79077;BME280;68477;42.698;23.342;2023-05-14T05:56:40;95969.97;;;10.38;78.00
79077;BME280;68477;42.698;23.342;2023-05-14T05:59:05;95967.03;;;10.41;78.80
79077;BME280;68477;42.698;23.342;2023-05-14T06:01:31;95960.03;;;10.24;78.24
79077;BME280;68477;42.698;23.342;2023-05-14T06:03:56;95953.31;;;10.29;78.68
79077;BME280;68477;42.698;23.342;2023-05-14T06:06:21;95961.41;;;10.18;78.86
79077;BME280;68477;42.698;23.342;2023-05-14T06:08:47;95959.56;;;10.10;78.23
79077;BME280;68477;42.698;23.342;2023-05-14T06:11:12;95963.16;;;10.09;79.40
79077;BME280;68477;42.698;23.342;2023-05-14T06:13:38;95964.59;;;10.04;79.86
79077;BME280;68477;42.698;23.342;2023-05-14T06:16:03;95960.06;;;9.96;81.57
79077;BME280;68477;42.698;23.342;2023-05-14T06:18:29;95968.69;;;10.06;80.72
79077;BME280;68477;42.698;23.342;2023-05-14T06:20:54;95969.31;;;10.00;80.52
79077;BME280;68477;42.698;23.342;2023-05-14T06:23:21;95960.09;;;10.32;78.78
79077;BME280;68477;42.698;23.342;2023-05-14T06:25:48;95953.94;;;10.23;79.93
79077;BME280;68477;42.698;23.342;2023-05-14T06:28:14;95963.38;;;10.16;80.45
79077;BME280;68477;42.698;23.342;2023-05-14T06:30:39;95951.88;;;10.17;79.71
79077;BME280;68477;42.698;23.342;2023-05-14T06:33:05;95965.13;;;10.25;82.63
79077;BME280;68477;42.698;23.342;2023-05-14T06:35:31;95972.50;;;10.22;82.82
79077;BME280;68477;42.698;23.342;2023-05-14T06:37:56;95982.91;;;10.13;82.53
79077;BME280;68477;42.698;23.342;2023-05-14T06:40:22;95972.84;;;10.09;83.28
79077;BME280;68477;42.698;23.342;2023-05-14T06:42:47;95969.16;;;10.19;84.24
79077;BME280;68477;42.698;23.342;2023-05-14T06:45:13;95968.94;;;10.13;84.41
79077;BME280;68477;42.698;23.342;2023-05-14T06:47:38;95963.75;;;10.21;84.46
79077;BME280;68477;42.698;23.342;2023-05-14T06:50:04;95958.59;;;10.11;83.05
79077;BME280;68477;42.698;23.342;2023-05-14T06:52:29;95961.66;;;10.07;84.48
79077;BME280;68477;42.698;23.342;2023-05-14T06:54:55;95949.09;;;10.36;83.58
79077;BME280;68477;42.698;23.342;2023-05-14T06:57:20;95939.81;;;10.24;85.09
79077;BME280;68477;42.698;23.342;2023-05-14T06:59:46;95936.03;;;10.27;83.40
79077;BME280;68477;42.698;23.342;2023-05-14T07:02:11;95936.44;;;10.32;82.89
79077;BME280;68477;42.698;23.342;2023-05-14T07:04:37;95950.59;;;10.39;84.35
79077;BME280;68477;42.698;23.342;2023-05-14T07:07:02;95939.97;;;10.74;84.39
79077;BME280;68477;42.698;23.342;2023-05-14T07:09:28;95953.50;;;10.54;82.29
79077;BME280;68477;42.698;23.342;2023-05-14T07:11:53;95956.25;;;10.52;84.24
79077;BME280;68477;42.698;23.342;2023-05-14T07:14:18;95954.34;;;10.54;84.56
79077;BME280;68477;42.698;23.342;2023-05-14T07:16:44;95955.97;;;10.81;82.81
79077;BME280;68477;42.698;23.342;2023-05-14T07:19:11;95985.31;;;10.68;82.30
79077;BME280;68477;42.698;23.342;2023-05-14T07:21:36;95990.81;;;10.31;81.54
79077;BME280;68477;42.698;23.342;2023-05-14T07:24:03;95995.38;;;10.47;83.04
79077;BME280;68477;42.698;23.342;2023-05-14T07:26:29;95986.44;;;10.40;82.51
79077;BME280;68477;42.698;23.342;2023-05-14T07:28:55;95976.59;;;10.42;83.27
79077;BME280;68477;42.698;23.342;2023-05-14T07:31:21;95969.16;;;10.37;83.39
79077;BME280;68477;42.698;23.342;2023-05-14T07:33:46;95976.91;;;10.21;82.70
79077;BME280;68477;42.698;23.342;2023-05-14T07:36:12;95971.41;;;10.14;84.57
79077;BME280;68477;42.698;23.342;2023-05-14T07:38:37;95968.78;;;10.14;82.75
79077;BME280;68477;42.698;23.342;2023-05-14T07:41:03;95974.56;;;10.18;83.93
79077;BME280;68477;42.698;23.342;2023-05-14T07:43:28;95972.03;;;10.08;82.96
79077;BME280;68477;42.698;23.342;2023-05-14T07:45:54;95986.00;;;10.27;84.66
79077;BME280;68477;42.698;23.342;2023-05-14T07:48:20;95986.97;;;10.26;85.40
79077;BME280;68477;42.698;23.342;2023-05-14T07:50:47;95985.03;;;10.28;83.09
79077;BME280;68477;42.698;23.342;2023-05-14T07:53:12;95982.53;;;10.44;84.22
79077;BME280;68477;42.698;23.342;2023-05-14T07:55:38;95988.84;;;10.33;83.85
79077;BME280;68477;42.698;23.342;2023-05-14T07:58:03;95993.25;;;10.15;83.51
79077;BME280;68477;42.698;23.342;2023-05-14T08:00:29;95997.84;;;9.95;83.68
79077;BME280;68477;42.698;23.342;2023-05-14T08:02:54;95989.22;;;10.03;84.08
79077;BME280;68477;42.698;23.342;2023-05-14T08:05:20;95987.19;;;10.14;84.63
79077;BME280;68477;42.698;23.342;2023-05-14T08:07:49;95994.47;;;10.20;83.01
79077;BME280;68477;42.698;23.342;2023-05-14T08:10:14;95996.19;;;10.12;83.07
79077;BME280;68477;42.698;23.342;2023-05-14T08:12:39;95988.69;;;10.17;84.05
79077;BME280;68477;42.698;23.342;2023-05-14T08:15:06;95992.00;;;10.37;84.92
79077;BME280;68477;42.698;23.342;2023-05-14T08:17:32;95990.19;;;10.37;84.26
79077;BME280;68477;42.698;23.342;2023-05-14T08:19:58;95981.47;;;10.55;81.60
79077;BME280;68477;42.698;23.342;2023-05-14T08:22:24;95971.44;;;10.32;81.84
79077;BME280;68477;42.698;23.342;2023-05-14T08:24:50;95970.00;;;10.20;80.84
79077;BME280;68477;42.698;23.342;2023-05-14T08:27:15;95961.50;;;10.26;81.71
79077;BME280;68477;42.698;23.342;2023-05-14T08:29:41;95955.66;;;10.32;83.20
79077;BME280;68477;42.698;23.342;2023-05-14T08:32:07;95956.44;;;10.50;83.80
79077;BME280;68477;42.698;23.342;2023-05-14T08:34:33;95966.53;;;10.37;84.17
79077;BME280;68477;42.698;23.342;2023-05-14T08:36:59;95966.94;;;10.50;84.88
79077;BME280;68477;42.698;23.342;2023-05-14T08:39:24;95959.16;;;10.41;82.33
79077;BME280;68477;42.698;23.342;2023-05-14T08:41:50;95962.41;;;10.35;82.24
79077;BME280;68477;42.698;23.342;2023-05-14T08:44:18;95953.06;;;10.40;82.92
79077;BME280;68477;42.698;23.342;2023-05-14T08:46:44;95946.06;;;10.23;82.09
79077;BME280;68477;42.698;23.342;2023-05-14T08:51:58;95943.28;;;10.25;81.26
79077;BME280;68477;42.698;23.342;2023-05-14T08:54:25;95946.34;;;10.20;81.19
79077;BME280;68477;42.698;23.342;2023-05-14T08:56:51;95932.38;;;10.02;82.80
79077;BME280;68477;42.698;23.342;2023-05-14T08:59:18;95924.66;;;10.00;81.67
79077;BME280;68477;42.698;23.342;2023-05-14T09:01:46;95936.22;;;10.25;83.28
79077;BME280;68477;42.698;23.342;2023-05-14T09:04:18;95948.22;;;10.10;81.99
79077;BME280;68477;42.698;23.342;2023-05-14T09:06:47;95938.72;;;10.17;82.25
79077;BME280;68477;42.698;23.342;2023-05-14T09:09:13;95950.59;;;10.39;81.78
79077;BME280;68477;42.698;23.342;2023-05-14T09:11:45;95953.03;;;10.32;80.77
79077;BME280;68477;42.698;23.342;2023-05-14T09:14:11;95939.06;;;10.32;83.45
79077;BME280;68477;42.698;23.342;2023-05-14T09:16:37;95939.34;;;10.29;81.54
79077;BME280;68477;42.698;23.342;2023-05-14T09:19:04;95924.19;;;10.48;83.67
79077;BME280;68477;42.698;23.342;2023-05-14T09:21:29;95939.38;;;10.55;82.25
79077;BME280;68477;42.698;23.342;2023-05-14T09:23:56;95935.03;;;10.45;80.36
79077;BME280;68477;42.698;23.342;2023-05-14T09:26:25;95940.91;;;10.39;81.44
79077;BME280;68477;42.698;23.342;2023-05-14T09:28:55;95947.75;;;10.14;80.67
79077;BME280;68477;42.698;23.342;2023-05-14T09:31:21;95933.94;;;10.12;81.83
79077;BME280;68477;42.698;23.342;2023-05-14T09:33:50;95921.56;;;10.05;82.46
79077;BME280;68477;42.698;23.342;2023-05-14T09:36:16;95928.31;;;10.07;81.47
79077;BME280;68477;42.698;23.342;2023-05-14T09:38:42;95932.97;;;10.13;82.55
79077;BME280;68477;42.698;23.342;2023-05-14T09:41:08;95922.44;;;10.13;81.66
79077;BME280;68477;42.698;23.342;2023-05-14T09:43:33;95909.66;;;10.18;81.14
79077;BME280;68477;42.698;23.342;2023-05-14T09:45:58;95905.69;;;10.32;82.99
79077;BME280;68477;42.698;23.342;2023-05-14T09:48:24;95908.56;;;10.21;82.15
79077;BME280;68477;42.698;23.342;2023-05-14T09:50:50;95906.69;;;10.13;80.22
79077;BME280;68477;42.698;23.342;2023-05-14T09:53:16;95912.06;;;10.30;80.10
79077;BME280;68477;42.698;23.342;2023-05-14T09:55:43;95910.63;;;10.17;81.95
79077;BME280;68477;42.698;23.342;2023-05-14T09:58:09;95907.63;;;10.30;83.06
79077;BME280;68477;42.698;23.342;2023-05-14T10:00:35;95902.75;;;10.35;80.81
79077;BME280;68477;42.698;23.342;2023-05-14T10:03:07;95909.09;;;10.25;82.54
79077;BME280;68477;42.698;23.342;2023-05-14T10:05:36;95899.16;;;10.18;83.22
79077;BME280;68477;42.698;23.342;2023-05-14T10:08:13;95883.63;;;10.07;82.86
79077;BME280;68477;42.698;23.342;2023-05-14T10:10:39;95880.41;;;10.13;82.57
79077;BME280;68477;42.698;23.342;2023-05-14T10:13:18;95880.66;;;10.02;83.21
79077;BME280;68477;42.698;23.342;2023-05-14T10:15:56;95883.53;;;10.17;81.79
79077;BME280;68477;42.698;23.342;2023-05-14T10:18:27;95871.91;;;10.19;82.51
79077;BME280;68477;42.698;23.342;2023-05-14T10:21:05;95870.63;;;10.06;84.80
79077;BME280;68477;42.698;23.342;2023-05-14T10:23:32;95865.94;;;10.09;82.72
79077;BME280;68477;42.698;23.342;2023-05-14T10:25:58;95860.41;;;10.20;83.27
79077;BME280;68477;42.698;23.342;2023-05-14T10:28:25;95861.44;;;10.28;83.93
79077;BME280;68477;42.698;23.342;2023-05-14T10:30:53;95882.72;;;10.16;82.54
79077;BME280;68477;42.698;23.342;2023-05-14T10:33:18;95895.66;;;10.10;84.95
79077;BME280;68477;42.698;23.342;2023-05-14T10:36:05;95884.16;;;10.11;83.23
79077;BME280;68477;42.698;23.342;2023-05-14T10:38:33;95882.91;;;9.97;82.34
79077;BME280;68477;42.698;23.342;2023-05-14T10:41:01;95883.03;;;9.96;82.73
79077;BME280;68477;42.698;23.342;2023-05-14T10:43:27;95869.25;;;9.93;83.18
79077;BME280;68477;42.698;23.342;2023-05-14T10:45:56;95865.28;;;10.15;83.75
79077;BME280;68477;42.698;23.342;2023-05-14T10:48:23;95861.50;;;10.10;82.26
79077;BME280;68477;42.698;23.342;2023-05-14T10:50:50;95873.28;;;10.24;84.10
79077;BME280;68477;42.698;23.342;2023-05-14T10:53:16;95885.88;;;10.20;83.92
79077;BME280;68477;42.698;23.342;2023-05-14T10:55:42;95865.06;;;10.27;83.40
79077;BME280;68477;42.698;23.342;2023-05-14T10:58:10;95876.91;;;10.57;82.57
79077;BME280;68477;42.698;23.342;2023-05-14T11:00:36;95862.41;;;10.53;81.80
79077;BME280;68477;42.698;23.342;2023-05-14T11:03:05;95845.91;;;10.34;82.09
79077;BME280;68477;42.698;23.342;2023-05-14T11:05:32;95850.66;;;10.31;82.43
79077;BME280;68477;42.698;23.342;2023-05-14T11:08:02;95867.66;;;10.44;82.54
79077;BME280;68477;42.698;23.342;2023-05-14T11:10:29;95863.41;;;10.26;82.29
79077;BME280;68477;42.698;23.342;2023-05-14T11:12:55;95861.69;;;10.16;82.41
79077;BME280;68477;42.698;23.342;2023-05-14T11:15:28;95864.03;;;10.19;83.97
79077;BME280;68477;42.698;23.342;2023-05-14T11:17:54;95875.28;;;10.12;83.22
79077;BME280;68477;42.698;23.342;2023-05-14T11:20:19;95877.53;;;10.25;83.31
79077;BME280;68477;42.698;23.342;2023-05-14T11:22:47;95879.69;;;10.29;82.61
79077;BME280;68477;42.698;23.342;2023-05-14T11:25:13;95869.72;;;10.33;82.91
79077;BME280;68477;42.698;23.342;2023-05-14T11:27:40;95869.66;;;10.25;82.32
79077;BME280;68477;42.698;23.342;2023-05-14T11:30:18;95857.56;;;10.40;83.69
79077;BME280;68477;42.698;23.342;2023-05-14T11:32:47;95854.09;;;10.31;83.06
79077;BME280;68477;42.698;23.342;2023-05-14T11:35:14;95854.75;;;10.33;82.30
79077;BME280;68477;42.698;23.342;2023-05-14T11:37:40;95860.25;;;10.48;81.38
79077;BME280;68477;42.698;23.342;2023-05-14T11:40:07;95859.13;;;10.50;83.49
79077;BME280;68477;42.698;23.342;2023-05-14T11:42:36;95853.56;;;10.62;83.48
79077;BME280;68477;42.698;23.342;2023-05-14T11:45:03;95842.88;;;10.55;82.82
79077;BME280;68477;42.698;23.342;2023-05-14T11:47:29;95835.00;;;10.63;83.72
79077;BME280;68477;42.698;23.342;2023-05-14T11:49:55;95836.31;;;10.59;81.96
79077;BME280;68477;42.698;23.342;2023-05-14T11:52:21;95842.19;;;10.53;82.16
79077;BME280;68477;42.698;23.342;2023-05-14T11:54:48;95842.06;;;10.55;81.91
79077;BME280;68477;42.698;23.342;2023-05-14T11:57:17;95843.09;;;10.70;82.63
79077;BME280;68477;42.698;23.342;2023-05-14T11:59:43;95832.91;;;10.75;81.14
79077;BME280;68477;42.698;23.342;2023-05-14T12:02:11;95833.97;;;10.98;82.44
79077;BME280;68477;42.698;23.342;2023-05-14T12:04:36;95834.31;;;10.95;81.49
79077;BME280;68477;42.698;23.342;2023-05-14T12:07:14;95833.88;;;11.16;80.94
79077;BME280;68477;42.698;23.342;2023-05-14T12:09:42;95825.66;;;11.11;82.16
79077;BME280;68477;42.698;23.342;2023-05-14T12:12:17;95814.47;;;11.25;81.88
79077;BME280;68477;42.698;23.342;2023-05-14T12:14:42;95821.25;;;11.36;82.88
79077;BME280;68477;42.698;23.342;2023-05-14T12:17:20;95809.06;;;11.51;80.37
79077;BME280;68477;42.698;23.342;2023-05-14T12:19:48;95798.88;;;11.56;78.25
79077;BME280;68477;42.698;23.342;2023-05-14T12:22:19;95790.13;;;11.48;77.73
79077;BME280;68477;42.698;23.342;2023-05-14T12:24:55;95786.00;;;11.37;78.59
79077;BME280;68477;42.698;23.342;2023-05-14T12:27:22;95778.78;;;11.23;78.83
79077;BME280;68477;42.698;23.342;2023-05-14T12:29:49;95782.72;;;11.35;78.74
79077;BME280;68477;42.698;23.342;2023-05-14T12:32:17;95780.72;;;11.21;78.48
79077;BME280;68477;42.698;23.342;2023-05-14T12:34:44;95776.94;;;11.40;79.77
79077;BME280;68477;42.698;23.342;2023-05-14T12:37:09;95777.94;;;11.30;78.04
79077;BME280;68477;42.698;23.342;2023-05-14T12:39:35;95774.00;;;11.34;78.00
79077;BME280;68477;42.698;23.342;2023-05-14T12:42:01;95759.66;;;11.21;78.42
79077;BME280;68477;42.698;23.342;2023-05-14T12:44:27;95771.53;;;11.25;80.12
79077;BME280;68477;42.698;23.342;2023-05-14T12:46:52;95765.41;;;11.00;78.91
79077;BME280;68477;42.698;23.342;2023-05-14T12:49:18;95764.75;;;11.14;79.23
79077;BME280;68477;42.698;23.342;2023-05-14T12:51:43;95775.63;;;11.11;78.91
79077;BME280;68477;42.698;23.342;2023-05-14T12:54:12;95773.81;;;11.20;79.38
79077;BME280;68477;42.698;23.342;2023-05-14T12:56:40;95770.03;;;11.30;80.63
79077;BME280;68477;42.698;23.342;2023-05-14T12:59:05;95775.44;;;11.21;79.71